Pago Pago, AS (96799)

1:04 AM SST on July 24, 2016 (GMT -1100)
Malaeimi | | Change Station

Elev 217 ft 14.32 °S, 170.74 °W | Updated 3 minutes ago

Light Rain
Light Rain
79.4 °F
Feels Like 84 °F
N
3.0
Wind Variable Wind from ESE
Gusts 3.0 mph

Today
High -- | Low -- °F
--% Chance of Precip.
Yesterday
High -- | Low -- °F
Precip. -- in
Pressure 29.82 in
Visibility 10.0 miles
Clouds Few 1600 ft
Mostly Cloudy 3500 ft
Overcast 5500 ft
Heat Index 84 °F
Dew Point 76 °F
Humidity 90%
Rainfall 0.00 in
Snow Depth Not available.
6:46 AM 6:12 PM
Waning Gibbous, 77% visible
METAR PHKO 241153Z AUTO 15025G31KT 10SM -RA FEW016 BKN035 OVC055 26/24 A2981 RMK AO2 PK WND 15031/1153 RAB32 SLP096 P0000 60000 70012 T02610244 10294 20261 56008 TSNO
Pressure 29.82 in
Visibility 10.0 miles
Clouds Few 1600 ft
Mostly Cloudy 3500 ft
Overcast 5500 ft
Heat Index 84 °F
Dew Point 76 °F
Humidity 90%
Rainfall 0.00 in
Snow Depth Not available.
6:46 AM 6:12 PM
Waning Gibbous, 77% visible
METAR PHKO 241153Z AUTO 15025G31KT 10SM -RA FEW016 BKN035 OVC055 26/24 A2981 RMK AO2 PK WND 15031/1153 RAB32 SLP096 P0000 60000 70012 T02610244 10294 20261 56008 TSNO

10-Day Weather Forecast

No radar image for this location.
×

Almanac

Astronomy

Jul. 24, 2016 Rise Set
Actual Time
Civil Twilight
Nautical Twilight
Astronomical Twilight
Moon
Length of Visible Light
Length of Day
Tomorrow will be .
, % of the Moon is Illuminated

Today's Extremes

State Highs State Lows

Community

WunderPhotos

Upload Photos

1,927,050 photos uploaded!

WunderBlog® & News

Nearby

Air Quality

  Air Quality AQ Index Pollutant
Not available.

Snow Depth

Station Depth Elevation

Earthquake Activity

City Distance Mag. Time & Date
Minimum magnitude displayed is 2.5.

Coastal Water Temperatures

Place Temperature

Stations

Nearby Weather Stations

Station Location Temp. Windchill Dew Point Humidity Wind Precip. Elev Updated Type
                   

Watches & Warnings

There are currently no watches in effect.